sensor_id;sensor_type;location;lat;lon;timestamp;temperature;humidity
5278;DHT22;2662;51.194;6.614;2022-07-22T00:01:51;18.80;99.90
5278;DHT22;2662;51.194;6.614;2022-07-22T00:04:18;18.80;99.90
5278;DHT22;2662;51.194;6.614;2022-07-22T00:06:45;18.80;99.90
5278;DHT22;2662;51.194;6.614;2022-07-22T00:09:13;18.80;99.90
5278;DHT22;2662;51.194;6.614;2022-07-22T00:11:40;18.80;99.90
5278;DHT22;2662;51.194;6.614;2022-07-22T00:14:06;18.90;99.90
5278;DHT22;2662;51.194;6.614;2022-07-22T00:16:33;18.80;99.90
5278;DHT22;2662;51.194;6.614;2022-07-22T00:19:00;18.80;99.90
5278;DHT22;2662;51.194;6.614;2022-07-22T00:21:27;18.90;99.90
5278;DHT22;2662;51.194;6.614;2022-07-22T00:23:53;18.90;99.90
5278;DHT22;2662;51.194;6.614;2022-07-22T00:26:21;18.80;99.90
5278;DHT22;2662;51.194;6.614;2022-07-22T00:28:48;18.80;99.90
5278;DHT22;2662;51.194;6.614;2022-07-22T00:31:15;18.80;99.90
5278;DHT22;2662;51.194;6.614;2022-07-22T00:33:42;18.80;99.90
5278;DHT22;2662;51.194;6.614;2022-07-22T00:36:09;18.80;99.90
5278;DHT22;2662;51.194;6.614;2022-07-22T00:38:35;18.90;99.90
5278;DHT22;2662;51.194;6.614;2022-07-22T00:41:02;18.90;99.90
5278;DHT22;2662;51.194;6.614;2022-07-22T00:43:56;18.90;99.90
5278;DHT22;2662;51.194;6.614;2022-07-22T00:46:24;18.90;99.90
5278;DHT22;2662;51.194;6.614;2022-07-22T00:48:52;19.00;99.90
5278;DHT22;2662;51.194;6.614;2022-07-22T00:51:19;18.90;99.90
5278;DHT22;2662;51.194;6.614;2022-07-22T00:53:47;18.90;99.90
5278;DHT22;2662;51.194;6.614;2022-07-22T00:56:15;18.90;99.90
5278;DHT22;2662;51.194;6.614;2022-07-22T00:58:42;19.00;99.90
5278;DHT22;2662;51.194;6.614;2022-07-22T01:01:10;19.00;99.90
5278;DHT22;2662;51.194;6.614;2022-07-22T01:03:38;19.00;99.90
5278;DHT22;2662;51.194;6.614;2022-07-22T01:06:06;19.00;99.90
5278;DHT22;2662;51.194;6.614;2022-07-22T01:08:34;19.00;99.90
5278;DHT22;2662;51.194;6.614;2022-07-22T01:11:08;19.00;99.90
5278;DHT22;2662;51.194;6.614;2022-07-22T01:13:35;19.00;99.90
5278;DHT22;2662;51.194;6.614;2022-07-22T01:16:02;19.10;99.90
5278;DHT22;2662;51.194;6.614;2022-07-22T01:18:31;19.10;99.90
5278;DHT22;2662;51.194;6.614;2022-07-22T01:20:59;19.00;99.90
5278;DHT22;2662;51.194;6.614;2022-07-22T01:23:26;19.00;99.90
5278;DHT22;2662;51.194;6.614;2022-07-22T01:25:53;19.00;99.90
5278;DHT22;2662;51.194;6.614;2022-07-22T01:28:21;19.00;99.90
5278;DHT22;2662;51.194;6.614;2022-07-22T01:30:48;18.90;99.90
5278;DHT22;2662;51.194;6.614;2022-07-22T01:33:15;18.90;99.90
5278;DHT22;2662;51.194;6.614;2022-07-22T01:35:42;18.90;99.90
5278;DHT22;2662;51.194;6.614;2022-07-22T01:38:10;18.90;99.90
5278;DHT22;2662;51.194;6.614;2022-07-22T01:40:37;18.80;99.90
5278;DHT22;2662;51.194;6.614;2022-07-22T01:43:04;18.80;99.90
5278;DHT22;2662;51.194;6.614;2022-07-22T01:45:31;18.80;99.90
5278;DHT22;2662;51.194;6.614;2022-07-22T01:47:58;18.80;99.90
5278;DHT22;2662;51.194;6.614;2022-07-22T01:50:25;18.80;99.90
5278;DHT22;2662;51.194;6.614;2022-07-22T01:52:51;18.80;99.90
5278;DHT22;2662;51.194;6.614;2022-07-22T01:55:20;18.80;99.90
5278;DHT22;2662;51.194;6.614;2022-07-22T01:57:46;18.80;99.90
5278;DHT22;2662;51.194;6.614;2022-07-22T02:00:14;18.70;99.90
5278;DHT22;2662;51.194;6.614;2022-07-22T02:02:41;18.70;99.90
5278;DHT22;2662;51.194;6.614;2022-07-22T02:05:08;18.70;99.90
5278;DHT22;2662;51.194;6.614;2022-07-22T02:07:35;18.70;99.90
5278;DHT22;2662;51.194;6.614;2022-07-22T02:10:03;18.70;99.90
5278;DHT22;2662;51.194;6.614;2022-07-22T02:12:31;18.80;99.90
5278;DHT22;2662;51.194;6.614;2022-07-22T02:14:58;18.70;99.90
5278;DHT22;2662;51.194;6.614;2022-07-22T02:17:25;18.70;99.90
5278;DHT22;2662;51.194;6.614;2022-07-22T02:19:51;18.70;99.90
5278;DHT22;2662;51.194;6.614;2022-07-22T02:22:18;18.60;99.90
5278;DHT22;2662;51.194;6.614;2022-07-22T02:24:45;18.60;99.90
5278;DHT22;2662;51.194;6.614;2022-07-22T02:27:12;18.50;99.90
5278;DHT22;2662;51.194;6.614;2022-07-22T02:29:40;18.40;99.90
5278;DHT22;2662;51.194;6.614;2022-07-22T02:32:07;18.40;99.90
5278;DHT22;2662;51.194;6.614;2022-07-22T02:34:34;18.40;99.90
5278;DHT22;2662;51.194;6.614;2022-07-22T02:37:01;18.30;99.90
5278;DHT22;2662;51.194;6.614;2022-07-22T02:39:28;18.20;99.90
5278;DHT22;2662;51.194;6.614;2022-07-22T02:41:54;18.20;99.90
5278;DHT22;2662;51.194;6.614;2022-07-22T02:44:21;18.40;99.90
5278;DHT22;2662;51.194;6.614;2022-07-22T02:46:49;18.20;99.90
5278;DHT22;2662;51.194;6.614;2022-07-22T02:49:16;18.20;99.90
5278;DHT22;2662;51.194;6.614;2022-07-22T02:51:43;18.30;99.90
5278;DHT22;2662;51.194;6.614;2022-07-22T02:54:09;18.20;99.90
5278;DHT22;2662;51.194;6.614;2022-07-22T02:56:36;18.20;99.90
5278;DHT22;2662;51.194;6.614;2022-07-22T02:59:03;18.20;99.90
5278;DHT22;2662;51.194;6.614;2022-07-22T03:01:30;18.20;99.90
5278;DHT22;2662;51.194;6.614;2022-07-22T03:03:58;18.40;99.90
5278;DHT22;2662;51.194;6.614;2022-07-22T03:06:24;18.40;99.90
5278;DHT22;2662;51.194;6.614;2022-07-22T03:08:51;18.40;99.90
5278;DHT22;2662;51.194;6.614;2022-07-22T03:11:18;18.30;99.90
5278;DHT22;2662;51.194;6.614;2022-07-22T03:13:45;18.40;99.90
5278;DHT22;2662;51.194;6.614;2022-07-22T03:16:11;18.40;99.90
5278;DHT22;2662;51.194;6.614;2022-07-22T03:18:38;18.40;99.90
5278;DHT22;2662;51.194;6.614;2022-07-22T03:21:07;18.50;99.90
5278;DHT22;2662;51.194;6.614;2022-07-22T03:23:33;18.50;99.90
5278;DHT22;2662;51.194;6.614;2022-07-22T03:26:00;18.50;99.90
5278;DHT22;2662;51.194;6.614;2022-07-22T03:28:27;18.50;99.90
5278;DHT22;2662;51.194;6.614;2022-07-22T03:30:53;18.50;99.90
5278;DHT22;2662;51.194;6.614;2022-07-22T03:33:20;18.60;99.90
5278;DHT22;2662;51.194;6.614;2022-07-22T03:35:47;18.50;99.90
5278;DHT22;2662;51.194;6.614;2022-07-22T03:38:15;18.50;99.90
5278;DHT22;2662;51.194;6.614;2022-07-22T03:40:42;18.40;99.90
5278;DHT22;2662;51.194;6.614;2022-07-22T03:43:09;18.40;99.90
5278;DHT22;2662;51.194;6.614;2022-07-22T03:45:35;18.40;99.90
5278;DHT22;2662;51.194;6.614;2022-07-22T03:48:03;18.40;99.90
5278;DHT22;2662;51.194;6.614;2022-07-22T03:50:29;18.50;99.90
5278;DHT22;2662;51.194;6.614;2022-07-22T03:52:56;18.50;99.90
5278;DHT22;2662;51.194;6.614;2022-07-22T03:55:24;18.50;99.90
5278;DHT22;2662;51.194;6.614;2022-07-22T03:57:51;18.50;99.90
5278;DHT22;2662;51.194;6.614;2022-07-22T04:00:18;18.50;99.90
5278;DHT22;2662;51.194;6.614;2022-07-22T04:02:44;18.60;99.90
5278;DHT22;2662;51.194;6.614;2022-07-22T04:05:11;18.50;99.90
5278;DHT22;2662;51.194;6.614;2022-07-22T04:07:38;18.40;99.90
5278;DHT22;2662;51.194;6.614;2022-07-22T04:10:06;18.40;99.90
5278;DHT22;2662;51.194;6.614;2022-07-22T04:12:35;18.40;99.90
5278;DHT22;2662;51.194;6.614;2022-07-22T04:15:03;18.40;99.90
5278;DHT22;2662;51.194;6.614;2022-07-22T04:17:30;18.40;99.90
5278;DHT22;2662;51.194;6.614;2022-07-22T04:19:57;18.30;99.90
5278;DHT22;2662;51.194;6.614;2022-07-22T04:22:24;18.40;99.90
5278;DHT22;2662;51.194;6.614;2022-07-22T04:24:51;18.40;99.90
5278;DHT22;2662;51.194;6.614;2022-07-22T04:27:18;18.20;99.90
5278;DHT22;2662;51.194;6.614;2022-07-22T04:29:46;18.20;99.90
5278;DHT22;2662;51.194;6.614;2022-07-22T04:32:13;18.20;99.90
5278;DHT22;2662;51.194;6.614;2022-07-22T04:34:40;18.10;99.90
5278;DHT22;2662;51.194;6.614;2022-07-22T04:37:07;18.20;99.90
5278;DHT22;2662;51.194;6.614;2022-07-22T04:39:34;18.20;99.90
5278;DHT22;2662;51.194;6.614;2022-07-22T04:42:00;18.10;99.90
5278;DHT22;2662;51.194;6.614;2022-07-22T04:44:27;18.20;99.90
5278;DHT22;2662;51.194;6.614;2022-07-22T04:46:55;18.20;99.90
5278;DHT22;2662;51.194;6.614;2022-07-22T04:49:22;18.20;99.90
5278;DHT22;2662;51.194;6.614;2022-07-22T04:51:51;18.20;99.90
5278;DHT22;2662;51.194;6.614;2022-07-22T04:54:18;18.30;99.90
5278;DHT22;2662;51.194;6.614;2022-07-22T04:56:44;18.40;99.90
5278;DHT22;2662;51.194;6.614;2022-07-22T04:59:11;18.40;99.90
5278;DHT22;2662;51.194;6.614;2022-07-22T05:01:38;18.50;99.90
5278;DHT22;2662;51.194;6.614;2022-07-22T05:04:06;18.50;99.90
5278;DHT22;2662;51.194;6.614;2022-07-22T05:06:33;18.60;99.90
5278;DHT22;2662;51.194;6.614;2022-07-22T05:09:00;18.60;99.90
5278;DHT22;2662;51.194;6.614;2022-07-22T05:11:26;18.70;99.90
5278;DHT22;2662;51.194;6.614;2022-07-22T05:13:53;18.70;99.90
5278;DHT22;2662;51.194;6.614;2022-07-22T05:16:20;18.80;99.90
5278;DHT22;2662;51.194;6.614;2022-07-22T05:18:47;18.90;99.90
5278;DHT22;2662;51.194;6.614;2022-07-22T05:21:15;19.00;99.90
5278;DHT22;2662;51.194;6.614;2022-07-22T05:23:41;19.10;99.90
5278;DHT22;2662;51.194;6.614;2022-07-22T05:26:09;19.10;99.90
5278;DHT22;2662;51.194;6.614;2022-07-22T05:28:35;19.10;99.90
5278;DHT22;2662;51.194;6.614;2022-07-22T05:31:02;19.20;99.90
5278;DHT22;2662;51.194;6.614;2022-07-22T05:33:29;19.20;99.90
5278;DHT22;2662;51.194;6.614;2022-07-22T05:35:56;19.20;99.90
5278;DHT22;2662;51.194;6.614;2022-07-22T05:38:24;19.30;99.90
5278;DHT22;2662;51.194;6.614;2022-07-22T05:40:51;19.40;99.90
5278;DHT22;2662;51.194;6.614;2022-07-22T05:43:17;19.40;99.90
5278;DHT22;2662;51.194;6.614;2022-07-22T05:45:44;19.40;99.90
5278;DHT22;2662;51.194;6.614;2022-07-22T05:48:11;19.40;99.90
5278;DHT22;2662;51.194;6.614;2022-07-22T05:50:38;19.50;99.90
5278;DHT22;2662;51.194;6.614;2022-07-22T05:53:05;19.60;99.90
5278;DHT22;2662;51.194;6.614;2022-07-22T05:55:33;19.70;99.90
5278;DHT22;2662;51.194;6.614;2022-07-22T05:57:59;19.90;99.90
5278;DHT22;2662;51.194;6.614;2022-07-22T06:00:26;19.90;99.90
5278;DHT22;2662;51.194;6.614;2022-07-22T06:02:53;19.70;99.90
5278;DHT22;2662;51.194;6.614;2022-07-22T06:05:20;19.80;99.90
5278;DHT22;2662;51.194;6.614;2022-07-22T06:07:47;19.80;99.90
5278;DHT22;2662;51.194;6.614;2022-07-22T06:10:14;19.90;99.90
5278;DHT22;2662;51.194;6.614;2022-07-22T06:12:42;19.90;99.90
5278;DHT22;2662;51.194;6.614;2022-07-22T06:15:09;20.00;99.90
5278;DHT22;2662;51.194;6.614;2022-07-22T06:17:36;20.00;99.90
5278;DHT22;2662;51.194;6.614;2022-07-22T06:20:03;20.10;99.90
5278;DHT22;2662;51.194;6.614;2022-07-22T06:22:30;20.10;99.90
5278;DHT22;2662;51.194;6.614;2022-07-22T06:24:57;20.20;99.90
5278;DHT22;2662;51.194;6.614;2022-07-22T06:27:23;20.10;99.90
5278;DHT22;2662;51.194;6.614;2022-07-22T06:29:51;20.10;99.90
5278;DHT22;2662;51.194;6.614;2022-07-22T06:32:18;20.10;99.90
5278;DHT22;2662;51.194;6.614;2022-07-22T06:34:45;20.20;99.90
5278;DHT22;2662;51.194;6.614;2022-07-22T06:37:12;20.30;99.90
5278;DHT22;2662;51.194;6.614;2022-07-22T06:39:38;20.30;99.90
5278;DHT22;2662;51.194;6.614;2022-07-22T06:42:05;20.40;99.90
5278;DHT22;2662;51.194;6.614;2022-07-22T06:44:32;20.40;99.90
5278;DHT22;2662;51.194;6.614;2022-07-22T06:47:00;20.30;99.90
5278;DHT22;2662;51.194;6.614;2022-07-22T06:49:27;20.30;99.90
5278;DHT22;2662;51.194;6.614;2022-07-22T06:51:53;20.10;99.90
5278;DHT22;2662;51.194;6.614;2022-07-22T06:54:20;20.10;99.90
5278;DHT22;2662;51.194;6.614;2022-07-22T06:56:47;20.20;99.90
5278;DHT22;2662;51.194;6.614;2022-07-22T06:59:14;20.20;99.90
5278;DHT22;2662;51.194;6.614;2022-07-22T07:01:41;20.20;99.90
5278;DHT22;2662;51.194;6.614;2022-07-22T07:04:09;20.10;99.90
5278;DHT22;2662;51.194;6.614;2022-07-22T07:06:35;20.10;99.90
5278;DHT22;2662;51.194;6.614;2022-07-22T07:09:02;19.90;99.90
5278;DHT22;2662;51.194;6.614;2022-07-22T07:11:29;19.80;99.90
5278;DHT22;2662;51.194;6.614;2022-07-22T07:13:56;19.80;99.90
5278;DHT22;2662;51.194;6.614;2022-07-22T07:16:23;19.90;99.90
5278;DHT22;2662;51.194;6.614;2022-07-22T07:18:50;19.90;99.90
5278;DHT22;2662;51.194;6.614;2022-07-22T07:21:18;20.00;99.90
5278;DHT22;2662;51.194;6.614;2022-07-22T07:23:45;20.00;99.90
5278;DHT22;2662;51.194;6.614;2022-07-22T07:26:12;20.10;99.90
5278;DHT22;2662;51.194;6.614;2022-07-22T07:28:38;19.80;99.90
5278;DHT22;2662;51.194;6.614;2022-07-22T07:31:05;19.70;99.90
5278;DHT22;2662;51.194;6.614;2022-07-22T07:33:33;19.70;99.90
5278;DHT22;2662;51.194;6.614;2022-07-22T07:36:00;19.70;99.90
5278;DHT22;2662;51.194;6.614;2022-07-22T07:38:28;19.70;99.90
5278;DHT22;2662;51.194;6.614;2022-07-22T07:40:55;19.60;99.90
5278;DHT22;2662;51.194;6.614;2022-07-22T07:43:22;19.70;99.90
5278;DHT22;2662;51.194;6.614;2022-07-22T07:45:49;19.50;99.90
5278;DHT22;2662;51.194;6.614;2022-07-22T07:48:15;19.40;99.90
5278;DHT22;2662;51.194;6.614;2022-07-22T07:50:42;19.30;99.90
5278;DHT22;2662;51.194;6.614;2022-07-22T07:53:12;19.40;99.90
5278;DHT22;2662;51.194;6.614;2022-07-22T07:55:41;19.40;99.90
5278;DHT22;2662;51.194;6.614;2022-07-22T07:58:07;19.40;99.90
5278;DHT22;2662;51.194;6.614;2022-07-22T08:00:35;19.40;99.90
5278;DHT22;2662;51.194;6.614;2022-07-22T08:03:02;19.40;99.90
5278;DHT22;2662;51.194;6.614;2022-07-22T08:05:29;19.40;99.90
5278;DHT22;2662;51.194;6.614;2022-07-22T08:07:56;19.50;99.90
5278;DHT22;2662;51.194;6.614;2022-07-22T08:10:23;19.60;99.90
5278;DHT22;2662;51.194;6.614;2022-07-22T08:12:51;19.40;99.90
5278;DHT22;2662;51.194;6.614;2022-07-22T08:15:18;19.40;99.90
5278;DHT22;2662;51.194;6.614;2022-07-22T08:17:45;19.20;99.90
5278;DHT22;2662;51.194;6.614;2022-07-22T08:20:12;19.30;99.90
5278;DHT22;2662;51.194;6.614;2022-07-22T08:22:39;19.40;99.90
5278;DHT22;2662;51.194;6.614;2022-07-22T08:25:06;19.60;99.90
5278;DHT22;2662;51.194;6.614;2022-07-22T08:27:34;19.60;99.90
5278;DHT22;2662;51.194;6.614;2022-07-22T08:30:03;19.80;99.90
5278;DHT22;2662;51.194;6.614;2022-07-22T08:32:31;19.80;99.90
5278;DHT22;2662;51.194;6.614;2022-07-22T08:34:58;19.70;99.90
5278;DHT22;2662;51.194;6.614;2022-07-22T08:37:25;20.00;99.90
5278;DHT22;2662;51.194;6.614;2022-07-22T08:39:51;20.20;99.90
5278;DHT22;2662;51.194;6.614;2022-07-22T08:42:19;20.30;99.90
5278;DHT22;2662;51.194;6.614;2022-07-22T08:44:47;20.50;99.90
5278;DHT22;2662;51.194;6.614;2022-07-22T08:47:19;20.70;99.90
5278;DHT22;2662;51.194;6.614;2022-07-22T08:49:47;21.00;99.90
5278;DHT22;2662;51.194;6.614;2022-07-22T08:52:13;21.00;99.90
5278;DHT22;2662;51.194;6.614;2022-07-22T08:54:40;20.90;99.90
5278;DHT22;2662;51.194;6.614;2022-07-22T08:57:07;21.20;99.90
5278;DHT22;2662;51.194;6.614;2022-07-22T08:59:48;21.60;99.90
5278;DHT22;2662;51.194;6.614;2022-07-22T09:02:16;21.30;99.90
5278;DHT22;2662;51.194;6.614;2022-07-22T09:04:52;21.60;99.90
5278;DHT22;2662;51.194;6.614;2022-07-22T09:07:30;22.10;99.90
5278;DHT22;2662;51.194;6.614;2022-07-22T09:09:58;22.40;99.90
5278;DHT22;2662;51.194;6.614;2022-07-22T09:12:26;22.60;99.90
5278;DHT22;2662;51.194;6.614;2022-07-22T09:14:56;22.80;99.90
5278;DHT22;2662;51.194;6.614;2022-07-22T09:17:26;23.20;99.90
5278;DHT22;2662;51.194;6.614;2022-07-22T09:19:54;23.00;99.90
5278;DHT22;2662;51.194;6.614;2022-07-22T09:22:35;22.60;99.90
5278;DHT22;2662;51.194;6.614;2022-07-22T09:25:21;22.70;99.90
5278;DHT22;2662;51.194;6.614;2022-07-22T09:27:49;23.10;99.90
5278;DHT22;2662;51.194;6.614;2022-07-22T09:30:17;23.60;99.90
5278;DHT22;2662;51.194;6.614;2022-07-22T09:32:46;23.70;99.90
5278;DHT22;2662;51.194;6.614;2022-07-22T09:35:14;24.20;99.90
5278;DHT22;2662;51.194;6.614;2022-07-22T09:37:51;24.50;99.90
5278;DHT22;2662;51.194;6.614;2022-07-22T09:40:20;24.50;99.90
5278;DHT22;2662;51.194;6.614;2022-07-22T09:42:50;24.60;99.90
5278;DHT22;2662;51.194;6.614;2022-07-22T09:45:18;25.00;99.90
5278;DHT22;2662;51.194;6.614;2022-07-22T09:47:47;25.50;99.90
5278;DHT22;2662;51.194;6.614;2022-07-22T09:50:18;25.70;99.90
5278;DHT22;2662;51.194;6.614;2022-07-22T09:52:46;26.10;99.90
5278;DHT22;2662;51.194;6.614;2022-07-22T09:55:15;26.40;99.90
5278;DHT22;2662;51.194;6.614;2022-07-22T09:57:42;26.80;99.90
5278;DHT22;2662;51.194;6.614;2022-07-22T10:00:10;27.30;99.90
5278;DHT22;2662;51.194;6.614;2022-07-22T10:02:41;28.20;99.90
5278;DHT22;2662;51.194;6.614;2022-07-22T10:05:13;28.70;99.90
5278;DHT22;2662;51.194;6.614;2022-07-22T10:07:41;27.70;99.90
5278;DHT22;2662;51.194;6.614;2022-07-22T10:10:10;26.90;99.90
5278;DHT22;2662;51.194;6.614;2022-07-22T10:12:37;26.40;99.90
5278;DHT22;2662;51.194;6.614;2022-07-22T10:15:05;25.90;99.90
5278;DHT22;2662;51.194;6.614;2022-07-22T10:17:33;26.00;99.90
5278;DHT22;2662;51.194;6.614;2022-07-22T10:20:03;25.80;99.90
5278;DHT22;2662;51.194;6.614;2022-07-22T10:22:54;25.40;99.90
5278;DHT22;2662;51.194;6.614;2022-07-22T10:25:23;24.80;99.90
5278;DHT22;2662;51.194;6.614;2022-07-22T10:27:52;24.40;99.90
5278;DHT22;2662;51.194;6.614;2022-07-22T10:30:21;24.80;99.90
5278;DHT22;2662;51.194;6.614;2022-07-22T10:33:05;24.70;99.90
5278;DHT22;2662;51.194;6.614;2022-07-22T10:35:33;24.90;99.90
5278;DHT22;2662;51.194;6.614;2022-07-22T10:38:04;25.30;99.90
5278;DHT22;2662;51.194;6.614;2022-07-22T10:40:45;25.40;99.90
5278;DHT22;2662;51.194;6.614;2022-07-22T10:43:14;25.10;99.90
5278;DHT22;2662;51.194;6.614;2022-07-22T10:45:45;24.10;99.90
5278;DHT22;2662;51.194;6.614;2022-07-22T10:48:14;24.00;99.90
5278;DHT22;2662;51.194;6.614;2022-07-22T10:53:42;24.40;99.90
5278;DHT22;2662;51.194;6.614;2022-07-22T10:56:21;24.80;99.90
5278;DHT22;2662;51.194;6.614;2022-07-22T10:59:01;25.20;99.90
5278;DHT22;2662;51.194;6.614;2022-07-22T11:01:34;25.60;99.90
5278;DHT22;2662;51.194;6.614;2022-07-22T11:04:13;25.80;99.90
5278;DHT22;2662;51.194;6.614;2022-07-22T11:06:40;25.70;99.90
5278;DHT22;2662;51.194;6.614;2022-07-22T11:09:10;25.90;99.90
5278;DHT22;2662;51.194;6.614;2022-07-22T11:11:40;26.50;99.90
5278;DHT22;2662;51.194;6.614;2022-07-22T11:14:23;27.20;99.90
5278;DHT22;2662;51.194;6.614;2022-07-22T11:16:54;27.90;99.90
5278;DHT22;2662;51.194;6.614;2022-07-22T11:19:23;27.30;99.90
5278;DHT22;2662;51.194;6.614;2022-07-22T11:21:52;27.00;99.90
5278;DHT22;2662;51.194;6.614;2022-07-22T11:24:21;27.20;99.90
5278;DHT22;2662;51.194;6.614;2022-07-22T11:26:50;27.10;99.90
5278;DHT22;2662;51.194;6.614;2022-07-22T11:29:23;26.00;99.90
5278;DHT22;2662;51.194;6.614;2022-07-22T11:31:50;25.90;99.90
5278;DHT22;2662;51.194;6.614;2022-07-22T11:34:17;25.90;99.90
5278;DHT22;2662;51.194;6.614;2022-07-22T11:36:46;25.90;99.90
5278;DHT22;2662;51.194;6.614;2022-07-22T11:39:14;26.00;99.90
5278;DHT22;2662;51.194;6.614;2022-07-22T11:41:45;26.10;99.90
5278;DHT22;2662;51.194;6.614;2022-07-22T11:44:12;26.40;99.90
5278;DHT22;2662;51.194;6.614;2022-07-22T11:46:43;26.70;99.90
5278;DHT22;2662;51.194;6.614;2022-07-22T11:49:14;27.20;99.90
5278;DHT22;2662;51.194;6.614;2022-07-22T11:51:40;27.70;99.90
5278;DHT22;2662;51.194;6.614;2022-07-22T11:54:08;28.10;99.90
5278;DHT22;2662;51.194;6.614;2022-07-22T11:56:36;27.80;99.90
5278;DHT22;2662;51.194;6.614;2022-07-22T11:59:05;27.00;99.90
5278;DHT22;2662;51.194;6.614;2022-07-22T12:01:34;26.70;99.90
5278;DHT22;2662;51.194;6.614;2022-07-22T12:04:03;26.30;99.90
5278;DHT22;2662;51.194;6.614;2022-07-22T12:06:32;26.20;99.90
5278;DHT22;2662;51.194;6.614;2022-07-22T12:09:04;26.00;99.90
5278;DHT22;2662;51.194;6.614;2022-07-22T12:11:32;26.60;99.90
5278;DHT22;2662;51.194;6.614;2022-07-22T12:14:07;26.50;99.90
5278;DHT22;2662;51.194;6.614;2022-07-22T12:16:34;26.30;99.90
5278;DHT22;2662;51.194;6.614;2022-07-22T12:19:04;26.40;99.90
5278;DHT22;2662;51.194;6.614;2022-07-22T12:21:32;26.50;99.90
5278;DHT22;2662;51.194;6.614;2022-07-22T12:24:01;26.70;99.90
5278;DHT22;2662;51.194;6.614;2022-07-22T12:26:44;26.80;99.90
5278;DHT22;2662;51.194;6.614;2022-07-22T12:29:14;27.20;99.90
5278;DHT22;2662;51.194;6.614;2022-07-22T12:31:42;27.10;99.90
5278;DHT22;2662;51.194;6.614;2022-07-22T12:34:09;25.80;99.90
5278;DHT22;2662;51.194;6.614;2022-07-22T12:36:36;25.60;99.90
5278;DHT22;2662;51.194;6.614;2022-07-22T12:39:11;25.40;99.90
5278;DHT22;2662;51.194;6.614;2022-07-22T12:41:45;25.00;99.90
5278;DHT22;2662;51.194;6.614;2022-07-22T12:44:17;25.50;99.90
5278;DHT22;2662;51.194;6.614;2022-07-22T12:46:45;26.20;99.90
5278;DHT22;2662;51.194;6.614;2022-07-22T12:49:12;26.80;99.90
5278;DHT22;2662;51.194;6.614;2022-07-22T12:51:38;26.30;99.90
5278;DHT22;2662;51.194;6.614;2022-07-22T12:54:05;26.60;99.90
5278;DHT22;2662;51.194;6.614;2022-07-22T12:56:32;26.80;99.90
5278;DHT22;2662;51.194;6.614;2022-07-22T12:59:00;26.80;99.90
5278;DHT22;2662;51.194;6.614;2022-07-22T13:01:28;26.80;99.90
5278;DHT22;2662;51.194;6.614;2022-07-22T13:03:55;26.40;99.90
5278;DHT22;2662;51.194;6.614;2022-07-22T13:06:22;26.60;99.90
5278;DHT22;2662;51.194;6.614;2022-07-22T13:08:49;27.00;99.90
5278;DHT22;2662;51.194;6.614;2022-07-22T13:11:16;26.80;99.90
5278;DHT22;2662;51.194;6.614;2022-07-22T13:13:43;26.20;99.90
5278;DHT22;2662;51.194;6.614;2022-07-22T13:16:11;26.30;99.90
5278;DHT22;2662;51.194;6.614;2022-07-22T13:18:39;26.60;99.90
5278;DHT22;2662;51.194;6.614;2022-07-22T13:21:06;26.60;99.90
5278;DHT22;2662;51.194;6.614;2022-07-22T13:23:33;26.60;99.90
5278;DHT22;2662;51.194;6.614;2022-07-22T13:25:59;26.30;99.90
5278;DHT22;2662;51.194;6.614;2022-07-22T13:28:26;26.10;99.90
5278;DHT22;2662;51.194;6.614;2022-07-22T13:30:53;26.10;99.90
5278;DHT22;2662;51.194;6.614;2022-07-22T13:33:20;26.40;99.90
5278;DHT22;2662;51.194;6.614;2022-07-22T13:35:48;26.10;99.90
5278;DHT22;2662;51.194;6.614;2022-07-22T13:38:16;25.40;99.90
5278;DHT22;2662;51.194;6.614;2022-07-22T13:40:42;25.70;99.90
5278;DHT22;2662;51.194;6.614;2022-07-22T13:43:15;26.00;99.90
5278;DHT22;2662;51.194;6.614;2022-07-22T13:45:42;26.30;99.90
5278;DHT22;2662;51.194;6.614;2022-07-22T13:48:09;26.30;99.90
5278;DHT22;2662;51.194;6.614;2022-07-22T13:50:35;25.70;99.90
5278;DHT22;2662;51.194;6.614;2022-07-22T13:53:04;25.40;99.90
5278;DHT22;2662;51.194;6.614;2022-07-22T13:55:30;25.50;99.90
5278;DHT22;2662;51.194;6.614;2022-07-22T13:57:57;25.60;99.90
5278;DHT22;2662;51.194;6.614;2022-07-22T14:00:24;25.80;99.90
5278;DHT22;2662;51.194;6.614;2022-07-22T14:02:51;25.90;99.90
5278;DHT22;2662;51.194;6.614;2022-07-22T14:05:18;26.10;99.90
5278;DHT22;2662;51.194;6.614;2022-07-22T14:07:45;26.30;99.90
5278;DHT22;2662;51.194;6.614;2022-07-22T14:10:13;26.20;99.90
5278;DHT22;2662;51.194;6.614;2022-07-22T14:12:41;26.30;99.90
5278;DHT22;2662;51.194;6.614;2022-07-22T14:15:09;26.40;99.90
5278;DHT22;2662;51.194;6.614;2022-07-22T14:17:37;26.50;99.90
5278;DHT22;2662;51.194;6.614;2022-07-22T14:20:04;26.70;99.90
5278;DHT22;2662;51.194;6.614;2022-07-22T14:22:33;26.90;99.90
5278;DHT22;2662;51.194;6.614;2022-07-22T14:25:00;26.80;99.90
5278;DHT22;2662;51.194;6.614;2022-07-22T14:27:28;26.90;99.90
5278;DHT22;2662;51.194;6.614;2022-07-22T14:29:55;26.90;99.90
5278;DHT22;2662;51.194;6.614;2022-07-22T14:32:21;27.00;99.90
5278;DHT22;2662;51.194;6.614;2022-07-22T14:34:48;27.00;99.90
5278;DHT22;2662;51.194;6.614;2022-07-22T14:37:15;27.20;99.90
5278;DHT22;2662;51.194;6.614;2022-07-22T14:39:41;27.20;99.90
5278;DHT22;2662;51.194;6.614;2022-07-22T14:42:09;27.10;99.90
5278;DHT22;2662;51.194;6.614;2022-07-22T14:44:37;26.80;99.90
5278;DHT22;2662;51.194;6.614;2022-07-22T14:47:03;26.80;99.90
5278;DHT22;2662;51.194;6.614;2022-07-22T14:49:30;26.70;99.90
5278;DHT22;2662;51.194;6.614;2022-07-22T14:51:57;26.60;99.90
5278;DHT22;2662;51.194;6.614;2022-07-22T14:54:24;26.60;99.90
5278;DHT22;2662;51.194;6.614;2022-07-22T14:56:50;26.80;99.90
5278;DHT22;2662;51.194;6.614;2022-07-22T14:59:17;26.90;99.90
5278;DHT22;2662;51.194;6.614;2022-07-22T15:01:45;26.30;99.90
5278;DHT22;2662;51.194;6.614;2022-07-22T15:04:12;26.20;99.90
5278;DHT22;2662;51.194;6.614;2022-07-22T15:06:39;26.10;99.90
5278;DHT22;2662;51.194;6.614;2022-07-22T15:09:05;26.00;99.90
5278;DHT22;2662;51.194;6.614;2022-07-22T15:11:32;26.10;99.90
5278;DHT22;2662;51.194;6.614;2022-07-22T15:13:59;26.20;99.90
5278;DHT22;2662;51.194;6.614;2022-07-22T15:16:26;26.20;99.90
5278;DHT22;2662;51.194;6.614;2022-07-22T15:18:54;26.20;99.90
5278;DHT22;2662;51.194;6.614;2022-07-22T15:21:21;25.40;99.90
5278;DHT22;2662;51.194;6.614;2022-07-22T15:23:48;25.50;99.90
5278;DHT22;2662;51.194;6.614;2022-07-22T15:26:14;25.70;99.90
5278;DHT22;2662;51.194;6.614;2022-07-22T15:28:41;26.00;99.90
5278;DHT22;2662;51.194;6.614;2022-07-22T15:31:08;26.20;99.90
5278;DHT22;2662;51.194;6.614;2022-07-22T15:33:36;26.20;99.90
5278;DHT22;2662;51.194;6.614;2022-07-22T15:36:06;26.30;99.90
5278;DHT22;2662;51.194;6.614;2022-07-22T15:38:34;26.00;99.90
5278;DHT22;2662;51.194;6.614;2022-07-22T15:41:01;26.00;99.90
5278;DHT22;2662;51.194;6.614;2022-07-22T15:43:28;25.50;99.90
5278;DHT22;2662;51.194;6.614;2022-07-22T15:45:55;25.40;99.90
5278;DHT22;2662;51.194;6.614;2022-07-22T15:48:22;25.50;99.90
5278;DHT22;2662;51.194;6.614;2022-07-22T15:50:48;25.80;99.90
5278;DHT22;2662;51.194;6.614;2022-07-22T15:53:17;25.50;99.90
5278;DHT22;2662;51.194;6.614;2022-07-22T15:55:44;25.70;99.90
5278;DHT22;2662;51.194;6.614;2022-07-22T15:58:11;25.40;99.90
5278;DHT22;2662;51.194;6.614;2022-07-22T16:00:57;25.70;99.90
5278;DHT22;2662;51.194;6.614;2022-07-22T16:03:24;25.50;99.90
5278;DHT22;2662;51.194;6.614;2022-07-22T16:05:51;25.50;99.90
5278;DHT22;2662;51.194;6.614;2022-07-22T16:08:19;25.70;99.90
5278;DHT22;2662;51.194;6.614;2022-07-22T16:10:46;25.80;99.90